METAR AND TAF INFORMATION
METAR FOR LDRI
ADDS - METARS form results

(1726 UTC 02 February 2023)
Data provider http://aviationweather.gov/metar/data/
 
METAR text: LDRI 021700Z VRB02KT 9999 FEW030 07/04 Q1021
Conditions at: LDRI (RIJEKA/OMISALJ , HR) observed 1700 UTC 02 February 2023
Temperature: 7.0°C (45°F)
Dewpoint: 4.0°C (39°F) [RH = 81%]
Pressure (altimeter): 30.15 inches Hg (1021.0 mb)
Winds: variable direction winds at 2 MPH (2 knots; 1.0 m/s)
Visibility: 6 or more miles (10+ km)
Ceiling: at least 12,000 feet AGL
Clouds: few clouds at 3000 feet AGL
Weather: no significant weather observed at this time

METAR text: LDRI 021630Z VRB01KT 9999 FEW030 07/04 Q1021
Conditions at: LDRI (RIJEKA/OMISALJ , HR) observed 1630 UTC 02 February 2023
Temperature: 7.0°C (45°F)
Dewpoint: 4.0°C (39°F) [RH = 81%]
Pressure (altimeter): 30.15 inches Hg (1021.0 mb)
Winds: variable direction winds at 1 MPH (1 knots; 0.5 m/s)
Visibility: 6 or more miles (10+ km)
Ceiling: at least 12,000 feet AGL
Clouds: few clouds at 3000 feet AGL
Weather: no significant weather observed at this time

Forecast for: LDRI (RIJEKA/OMISALJ , HR)
Text: TAF LDRI 021725Z 0218/0318 08005KT 9999 FEW030 TX12/0313Z TN03/0305Z
Forecast period: 1800 UTC 02 February 2023 to 1800 UTC 03 February 2023
Forecast type: FROM: standard forecast or significant change
Winds: from the E (80 degrees) at 6 MPH (5 knots; 2.6 m/s)
Visibility: 6 or more miles (10+ km)
Ceiling: at least 12,000 feet AGL
Clouds: few clouds at 3000 feet AGL
Weather: no significant weather forecast for this period
Text: PROB30
Forecast period: 1800 UTC 02 February 2023 to 0000 UTC 03 February 2023
Forecast type: TEMPORARY: The following changes expected for less than half the time period
Visibility: 1.24 miles (2.00 km)
Ceiling: unknown
Clouds: missing
Weather: BR  (mist)

 AIRPORT MAP

 RUNWAY INFORMATION
Runway 14 Runway length 8164 ft Runway width 148 ft
Runway elevation 264 ft Runway displaced threshold 0 ft Runway heading 144
Runway 32 Runway length 8164 ft Runway width 148 ft
Runway elevation 246 ft Runway displaced threshold 0 ft Runway heading 324

 AIRPORT FREQUENCIES
Type APP Name APP Frequency 119 MHZ
Type TWR Name TWR Frequency 119 MHZ

 AIRPORT NEAR NAVIGATION AIDS
Type NDB Name Breza Frequency 400 KHZ
Type NDB Name Kozala Frequency 438 KHZ
Type VOR-DME Name Rijeka Frequency 117800 KHZ



Powered by Virtual Airlines Manager [v2.6.2]



This site has no connection with the actual Aegean Airlines®.
The site was designed exclusively for use in conjunction with Microsoft Flight Simulator™, Prepar3D™ and X-plane™.
Any References to Microsoft, Aegean, Airbus, Boeing, etc. are legally owned by the manufacturers and their owners.
Our views and activities are quite different from those of the real Aegean Airlines®. Everything is virtual. Resources and information cannot be used on real flights but only for virtual ones.

Everything was created for entertainment only